createdAt,value
2023-03-29T00:00:36.573Z,99454.88
2023-03-29T00:03:24.775Z,99447.31
2023-03-29T00:06:15.237Z,99448.00
2023-03-29T00:09:05.127Z,99441.13
2023-03-29T00:11:51.565Z,99434.97
2023-03-29T00:14:37.704Z,99433.63
2023-03-29T00:17:24.252Z,99425.72
2023-03-29T00:20:11.166Z,99420.22
2023-03-29T00:22:57.653Z,99426.06
2023-03-29T00:25:44.923Z,99430.25
2023-03-29T00:28:31.684Z,99418.06
2023-03-29T00:31:18.781Z,99432.72
2023-03-29T00:34:05.454Z,99424.94
2023-03-29T00:36:53.002Z,99421.63
2023-03-29T00:39:42.038Z,99422.56
2023-03-29T00:42:28.513Z,99421.69
2023-03-29T00:45:25.193Z,99411.41
2023-03-29T00:48:15.962Z,99408.91
2023-03-29T00:51:10.130Z,99408.75
2023-03-29T00:54:00.502Z,99412.34
2023-03-29T00:56:51.073Z,99396.06
2023-03-29T00:59:39.159Z,99407.16
2023-03-29T01:02:28.562Z,99400.28
2023-03-29T01:05:22.528Z,99376.22
2023-03-29T01:08:18.231Z,99386.69
2023-03-29T01:11:12.590Z,99383.28
2023-03-29T01:14:04.016Z,99373.78
2023-03-29T01:16:50.804Z,99376.44
2023-03-29T01:20:07.891Z,99379.78
2023-03-29T01:23:09.881Z,99365.13
2023-03-29T01:26:02.988Z,99361.16
2023-03-29T01:29:00.120Z,99359.47
2023-03-29T01:31:54.505Z,99348.53
2023-03-29T01:34:57.572Z,99352.06
2023-03-29T01:37:50.569Z,99331.63
2023-03-29T01:40:36.963Z,99336.84
2023-03-29T01:43:39.606Z,99325.63
2023-03-29T01:46:45.001Z,99314.34
2023-03-29T01:49:45.262Z,99311.78
2023-03-29T01:52:41.152Z,99305.63
2023-03-29T01:55:33.431Z,99313.97
2023-03-29T01:58:24.094Z,99305.31
2023-03-29T02:01:13.860Z,99289.03
2023-03-29T02:04:04.567Z,99283.84
2023-03-29T02:06:55.778Z,99269.34
2023-03-29T02:09:43.645Z,99282.88
2023-03-29T02:12:30.317Z,99279.53
2023-03-29T02:15:19.761Z,99291.00
2023-03-29T02:18:07.019Z,99301.91
2023-03-29T02:20:57.290Z,99312.84
2023-03-29T02:23:46.555Z,99277.25
2023-03-29T02:26:37.564Z,99296.28
2023-03-29T02:29:24.029Z,99303.22
2023-03-29T02:32:17.090Z,99286.66
2023-03-29T02:35:48.452Z,99286.16
2023-03-29T02:38:35.794Z,99283.56
2023-03-29T02:41:24.381Z,99258.44
2023-03-29T02:44:14.047Z,99249.78
2023-03-29T02:47:08.827Z,99237.66
2023-03-29T02:49:58.989Z,99242.84
2023-03-29T02:52:54.578Z,99219.09
2023-03-29T02:55:41.216Z,99227.53
2023-03-29T02:58:28.832Z,99224.75
2023-03-29T03:01:18.177Z,99222.31
2023-03-29T03:04:05.018Z,99198.38
2023-03-29T03:06:53.259Z,99220.84
2023-03-29T03:09:39.878Z,99220.13
2023-03-29T03:12:29.483Z,99225.56
2023-03-29T03:15:16.081Z,99197.19
2023-03-29T03:18:03.902Z,99223.34
2023-03-29T03:21:04.628Z,99233.03
2023-03-29T03:23:51.174Z,99230.72
2023-03-29T03:26:38.805Z,99230.66
2023-03-29T03:29:28.308Z,99224.16
2023-03-29T03:32:36.617Z,99222.63
2023-03-29T03:35:34.948Z,99209.38
2023-03-29T03:38:21.790Z,99214.78
2023-03-29T03:41:14.231Z,99221.34
2023-03-29T03:44:00.866Z,99222.34
2023-03-29T03:46:47.452Z,99226.53
2023-03-29T03:49:33.941Z,99225.34
2023-03-29T03:52:20.363Z,99226.53
2023-03-29T03:55:08.285Z,99209.88
2023-03-29T03:58:04.799Z,99223.88
2023-03-29T04:00:51.630Z,99233.13
2023-03-29T04:03:54.357Z,99242.69
2023-03-29T04:06:43.735Z,99235.78
2023-03-29T04:09:50.419Z,99232.50
2023-03-29T04:13:07.741Z,99233.22
2023-03-29T04:16:04.048Z,99229.53
2023-03-29T04:18:51.233Z,99228.78
2023-03-29T04:21:37.933Z,99216.81
2023-03-29T04:24:25.146Z,99235.44
2023-03-29T04:27:33.203Z,99239.53
2023-03-29T04:30:23.786Z,99240.56
2023-03-29T04:33:29.365Z,99220.72
2023-03-29T04:36:19.209Z,99244.75
2023-03-29T04:39:07.851Z,99237.75
2023-03-29T04:41:54.482Z,99222.34
2023-03-29T04:44:45.760Z,99229.13
2023-03-29T04:47:36.608Z,99230.97
2023-03-29T04:50:30.007Z,99204.06
2023-03-29T04:53:17.042Z,99236.88
2023-03-29T04:56:04.446Z,99242.00
2023-03-29T04:59:10.916Z,99242.19
2023-03-29T05:01:58.188Z,99243.13
2023-03-29T05:04:44.624Z,99231.38
2023-03-29T05:07:36.946Z,99237.63
2023-03-29T05:10:23.684Z,99248.81
2023-03-29T05:13:11.177Z,99233.16
2023-03-29T05:16:00.756Z,99243.44
2023-03-29T05:18:47.267Z,99239.88
2023-03-29T05:21:35.805Z,99221.25
2023-03-29T05:24:26.469Z,99246.50
2023-03-29T05:27:18.951Z,99254.13
2023-03-29T05:30:17.641Z,99262.59
2023-03-29T05:33:10.391Z,99249.97
2023-03-29T05:36:08.633Z,99238.69
2023-03-29T05:38:59.714Z,99245.84
2023-03-29T05:41:47.630Z,99251.69
2023-03-29T05:45:02.354Z,99246.72
2023-03-29T05:47:48.719Z,99242.91
2023-03-29T05:50:36.832Z,99250.06
2023-03-29T05:53:25.311Z,99256.91
2023-03-29T05:56:11.881Z,99262.28
2023-03-29T05:58:58.617Z,99240.69
2023-03-29T06:01:46.984Z,99257.03
2023-03-29T06:04:38.421Z,99268.88
2023-03-29T06:07:42.910Z,99260.72
2023-03-29T06:10:50.146Z,99256.44
2023-03-29T06:13:48.044Z,99265.16
2023-03-29T06:16:35.006Z,99257.50
2023-03-29T06:19:21.581Z,99248.16
2023-03-29T06:22:08.215Z,99269.03
2023-03-29T06:24:54.798Z,99271.66
2023-03-29T06:27:48.812Z,99266.38
2023-03-29T06:30:37.123Z,99272.50
2023-03-29T06:33:25.287Z,99265.66
2023-03-29T06:36:20.180Z,99263.16
2023-03-29T06:39:07.357Z,99267.38
2023-03-29T06:42:20.669Z,99269.22
2023-03-29T06:45:38.711Z,99267.69
2023-03-29T06:48:31.714Z,99278.56
2023-03-29T06:51:22.757Z,99282.25
2023-03-29T06:54:10.246Z,99271.47
2023-03-29T06:57:02.604Z,99204.91
2023-03-29T06:59:50.598Z,99280.28
2023-03-29T07:02:42.210Z,99284.78
2023-03-29T07:05:31.640Z,99288.22
2023-03-29T07:08:20.739Z,99282.16
2023-03-29T07:11:19.094Z,99284.56
2023-03-29T07:14:14.454Z,99285.34
2023-03-29T07:17:02.373Z,99289.47
2023-03-29T07:19:52.708Z,99293.19
2023-03-29T07:22:57.416Z,99275.28
2023-03-29T07:25:44.743Z,99288.22
2023-03-29T07:28:31.409Z,99290.13
2023-03-29T07:31:18.109Z,99297.16
2023-03-29T07:34:13.184Z,99292.91
2023-03-29T07:36:59.963Z,99296.41
2023-03-29T07:39:46.449Z,99299.22
2023-03-29T07:42:57.179Z,99307.97
2023-03-29T07:45:44.917Z,99296.81
2023-03-29T07:48:33.663Z,99296.22
2023-03-29T07:51:24.157Z,99285.81
2023-03-29T07:54:32.747Z,99183.94
2023-03-29T07:57:38.146Z,99303.47
2023-03-29T08:00:25.348Z,99283.72
2023-03-29T08:03:30.497Z,99311.47
2023-03-29T08:06:17.727Z,99296.81
2023-03-29T08:09:04.767Z,99296.06
2023-03-29T08:11:51.938Z,99291.06
2023-03-29T08:14:44.336Z,99304.13
2023-03-29T08:17:48.613Z,99280.19
2023-03-29T08:20:35.241Z,99294.00
2023-03-29T08:23:23.845Z,99226.56
2023-03-29T08:26:20.280Z,99292.31
2023-03-29T08:29:09.458Z,99288.03
2023-03-29T08:31:58.451Z,99270.75
2023-03-29T08:34:46.978Z,99294.03
2023-03-29T08:37:59.604Z,99270.69
2023-03-29T08:40:49.418Z,99275.00
2023-03-29T08:44:07.122Z,99288.91
2023-03-29T08:47:32.871Z,99296.78
2023-03-29T08:50:23.108Z,99271.81
2023-03-29T08:53:18.568Z,99260.66
2023-03-29T08:56:34.235Z,99285.72
2023-03-29T08:59:53.847Z,99277.94
2023-03-29T09:02:45.318Z,99268.41
2023-03-29T09:05:43.606Z,99275.28
2023-03-29T09:08:46.600Z,99274.38
2023-03-29T09:12:18.563Z,99275.16
2023-03-29T09:15:27.310Z,99271.66
2023-03-29T09:18:26.877Z,99277.66
2023-03-29T09:21:31.174Z,99233.44
2023-03-29T09:24:36.530Z,99261.22
2023-03-29T09:27:41.335Z,99257.56
2023-03-29T09:30:58.498Z,99252.88
2023-03-29T09:33:58.785Z,99254.34
2023-03-29T09:37:25.514Z,99249.06
2023-03-29T09:40:45.009Z,99260.03
2023-03-29T09:43:42.818Z,99257.97
2023-03-29T09:46:42.238Z,99255.91
2023-03-29T09:49:41.579Z,99258.28
2023-03-29T09:52:28.050Z,99253.59
2023-03-29T09:55:29.479Z,99260.41
2023-03-29T09:58:27.478Z,99257.13
2023-03-29T10:01:17.401Z,99252.59
2023-03-29T10:04:08.208Z,99220.09
2023-03-29T10:06:54.677Z,99229.63
2023-03-29T10:09:44.680Z,99231.28
2023-03-29T10:12:37.449Z,99222.50
2023-03-29T10:15:30.023Z,99197.34
2023-03-29T10:18:16.932Z,99227.63
2023-03-29T10:21:04.959Z,99205.97
2023-03-29T10:23:59.279Z,99232.38
2023-03-29T10:26:47.129Z,99225.69
2023-03-29T10:29:37.956Z,99204.53
2023-03-29T10:32:38.419Z,99216.31
2023-03-29T10:35:33.444Z,99224.56
2023-03-29T10:38:24.494Z,99211.78
2023-03-29T10:41:12.685Z,99214.19
2023-03-29T10:44:00.400Z,99186.06
2023-03-29T10:46:47.126Z,99199.72
2023-03-29T10:49:41.048Z,99204.88
2023-03-29T10:52:29.690Z,99214.09
2023-03-29T10:55:17.093Z,99188.63
2023-03-29T10:58:16.370Z,99197.63
2023-03-29T11:01:04.422Z,99186.25
2023-03-29T11:04:19.004Z,99189.13
2023-03-29T11:07:27.173Z,99178.19
2023-03-29T11:10:38.530Z,99180.44
2023-03-29T11:13:31.434Z,99170.53
2023-03-29T11:16:28.569Z,99170.13
2023-03-29T11:19:52.935Z,99165.44
2023-03-29T11:23:14.728Z,99163.72
2023-03-29T11:26:23.889Z,99145.69
2023-03-29T11:29:27.098Z,99166.38
2023-03-29T11:32:32.366Z,99159.88
2023-03-29T11:35:24.907Z,99140.34
2023-03-29T11:38:39.283Z,99129.25
2023-03-29T11:41:30.625Z,99140.97
2023-03-29T11:44:36.531Z,99147.59
2023-03-29T11:47:37.999Z,99149.72
2023-03-29T11:50:39.445Z,99152.94
2023-03-29T11:53:56.174Z,99153.38
2023-03-29T11:56:57.303Z,99135.25
2023-03-29T11:59:55.035Z,99124.53
2023-03-29T12:02:58.586Z,99134.41
2023-03-29T12:06:00.113Z,99137.72
2023-03-29T12:09:01.261Z,99139.09
2023-03-29T12:12:12.615Z,99127.91
2023-03-29T12:15:13.088Z,99136.72
2023-03-29T12:18:20.042Z,99135.94
2023-03-29T12:21:14.398Z,99132.75
2023-03-29T12:24:01.170Z,99131.69
2023-03-29T12:27:07.311Z,99127.75
2023-03-29T12:30:12.515Z,99131.25
2023-03-29T12:33:24.383Z,99135.34
2023-03-29T12:36:41.536Z,99132.19
2023-03-29T12:39:47.094Z,99129.66
2023-03-29T12:43:00.682Z,99124.66
2023-03-29T12:46:23.310Z,99107.53
2023-03-29T12:49:37.486Z,99120.03
2023-03-29T12:52:34.966Z,99128.91
2023-03-29T12:55:44.601Z,99116.91
2023-03-29T12:58:40.334Z,99124.47
2023-03-29T13:01:33.147Z,99132.56
2023-03-29T13:04:22.396Z,99128.31
2023-03-29T13:07:23.996Z,99127.88
2023-03-29T13:10:45.721Z,99126.84
2023-03-29T13:13:38.281Z,99126.28
2023-03-29T13:16:35.087Z,99121.59
2023-03-29T13:19:32.179Z,99115.81
2023-03-29T13:22:43.275Z,99118.66
2023-03-29T13:25:41.655Z,99105.19
2023-03-29T13:28:40.478Z,99114.13
2023-03-29T13:31:52.307Z,99115.63
2023-03-29T13:35:03.804Z,99114.19
2023-03-29T13:38:18.462Z,99118.91
2023-03-29T13:41:07.014Z,99122.75
2023-03-29T13:43:55.344Z,99123.22
2023-03-29T13:46:43.148Z,99122.19
2023-03-29T13:49:32.931Z,99113.81
2023-03-29T13:52:40.029Z,99109.47
2023-03-29T13:55:33.657Z,99135.16
2023-03-29T13:59:03.717Z,99132.22
2023-03-29T14:01:55.125Z,99132.13
2023-03-29T14:04:46.796Z,99108.81
2023-03-29T14:07:39.408Z,99126.09
2023-03-29T14:10:31.920Z,99120.47
2023-03-29T14:13:22.245Z,99104.59
2023-03-29T14:16:11.722Z,99053.34
2023-03-29T14:19:17.386Z,99078.41
2023-03-29T14:22:09.805Z,99089.94
2023-03-29T14:24:58.269Z,99080.84
2023-03-29T14:27:44.814Z,99083.72
2023-03-29T14:30:31.970Z,99092.38
2023-03-29T14:33:44.879Z,99069.78
2023-03-29T14:36:33.469Z,99079.94
2023-03-29T14:39:22.903Z,99077.97
2023-03-29T14:42:16.335Z,99074.34
2023-03-29T14:45:05.863Z,99069.97
2023-03-29T14:47:52.872Z,99069.59
2023-03-29T14:50:40.311Z,99065.81
2023-03-29T14:53:28.976Z,99058.16
2023-03-29T14:56:19.104Z,99055.75
2023-03-29T14:59:39.684Z,99057.44
2023-03-29T15:02:31.363Z,99044.84
2023-03-29T15:05:26.313Z,99044.06
2023-03-29T15:08:22.090Z,99035.69
2023-03-29T15:11:28.811Z,99040.78
2023-03-29T15:14:18.813Z,99030.34
2023-03-29T15:17:21.764Z,99030.44
2023-03-29T15:20:37.737Z,99035.31
2023-03-29T15:23:25.945Z,99019.06
2023-03-29T15:26:21.621Z,99005.47
2023-03-29T15:29:25.894Z,99017.72
2023-03-29T15:32:24.344Z,99015.50
2023-03-29T15:35:25.087Z,99011.41
2023-03-29T15:38:13.135Z,98996.25
2023-03-29T15:41:00.817Z,98997.25
2023-03-29T15:43:47.515Z,98989.81
2023-03-29T15:46:34.020Z,98932.53
2023-03-29T15:49:20.741Z,98993.94
2023-03-29T15:52:07.073Z,98994.41
2023-03-29T15:54:53.374Z,98999.53
2023-03-29T15:57:48.729Z,98945.88
2023-03-29T16:00:35.573Z,98999.25
2023-03-29T16:03:22.395Z,99007.25
2023-03-29T16:06:12.283Z,98996.34
2023-03-29T16:08:58.976Z,99000.84
2023-03-29T16:11:46.433Z,99001.88
2023-03-29T16:14:33.889Z,98998.53
2023-03-29T16:17:20.773Z,98941.97
2023-03-29T16:20:08.653Z,98995.84
2023-03-29T16:22:55.320Z,98929.53
2023-03-29T16:25:41.915Z,98978.06
2023-03-29T16:28:28.593Z,98989.91
2023-03-29T16:31:15.675Z,98978.69
2023-03-29T16:34:02.290Z,98977.88
2023-03-29T16:36:49.570Z,98975.63
2023-03-29T16:39:35.957Z,98961.50
2023-03-29T16:42:22.498Z,98959.91
2023-03-29T16:45:14.377Z,98944.41
2023-03-29T16:48:01.685Z,98953.28
2023-03-29T16:50:49.475Z,98950.78
2023-03-29T16:53:35.954Z,98933.75
2023-03-29T16:56:22.748Z,98943.31
2023-03-29T16:59:09.806Z,98958.88
2023-03-29T17:01:56.082Z,98935.72
2023-03-29T17:04:42.569Z,98954.13
2023-03-29T17:07:29.700Z,98965.59
2023-03-29T17:10:16.462Z,98954.53
2023-03-29T17:13:02.908Z,98961.66
2023-03-29T17:15:53.308Z,98957.44
2023-03-29T17:18:39.810Z,98965.31
2023-03-29T17:21:28.665Z,98948.13
2023-03-29T17:24:14.923Z,98942.25
2023-03-29T17:27:01.105Z,98933.41
2023-03-29T17:29:47.297Z,98934.44
2023-03-29T17:32:33.807Z,98929.25
2023-03-29T17:35:20.230Z,98917.28
2023-03-29T17:38:11.931Z,98932.03
2023-03-29T17:40:58.146Z,98930.56
2023-03-29T17:43:44.861Z,98885.25
2023-03-29T17:46:31.542Z,98928.03
2023-03-29T17:49:18.139Z,98914.56
2023-03-29T17:52:04.399Z,98928.31
2023-03-29T17:54:50.975Z,98932.72
2023-03-29T17:57:38.863Z,98929.22
2023-03-29T18:00:25.575Z,98931.94
2023-03-29T18:03:12.297Z,98912.97
2023-03-29T18:05:59.081Z,98925.03
2023-03-29T18:08:45.929Z,98916.50
2023-03-29T18:11:33.011Z,98930.28
2023-03-29T18:14:21.255Z,98918.34
2023-03-29T18:17:07.835Z,98922.66
2023-03-29T18:19:54.796Z,98915.81
2023-03-29T18:22:41.766Z,98904.72
2023-03-29T18:25:29.337Z,98922.84
2023-03-29T18:28:16.321Z,98931.56
2023-03-29T18:31:03.788Z,98916.94
2023-03-29T18:33:50.472Z,98908.47
2023-03-29T18:36:37.515Z,98920.56
2023-03-29T18:39:24.034Z,98915.44
2023-03-29T18:42:12.245Z,98912.84
2023-03-29T18:44:59.456Z,98910.34
2023-03-29T18:47:46.909Z,98904.28
2023-03-29T18:50:34.047Z,98881.91
2023-03-29T18:53:21.157Z,98910.38
2023-03-29T18:56:08.059Z,98916.44
2023-03-29T18:58:54.798Z,98913.88
2023-03-29T19:01:41.192Z,98922.56
2023-03-29T19:04:28.770Z,98915.66
2023-03-29T19:07:15.434Z,98915.69
2023-03-29T19:10:05.103Z,98920.91
2023-03-29T19:12:52.274Z,98915.78
2023-03-29T19:15:40.434Z,98907.22
2023-03-29T19:18:26.807Z,98918.47
2023-03-29T19:21:13.703Z,98913.34
2023-03-29T19:24:00.993Z,98917.69
2023-03-29T19:26:50.019Z,98916.88
2023-03-29T19:29:36.698Z,98915.16
2023-03-29T19:32:22.925Z,98911.75
2023-03-29T19:35:10.292Z,98912.63
2023-03-29T19:37:56.857Z,98904.84
2023-03-29T19:40:47.832Z,98885.09
2023-03-29T19:43:35.349Z,98881.69
2023-03-29T19:46:21.911Z,98875.69
2023-03-29T19:49:13.633Z,98897.28
2023-03-29T19:52:00.167Z,98876.66
2023-03-29T19:54:46.702Z,98884.41
2023-03-29T19:57:34.014Z,98876.69
2023-03-29T20:00:24.370Z,98868.06
2023-03-29T20:03:11.322Z,98855.16
2023-03-29T20:05:57.909Z,98862.88
2023-03-29T20:08:45.203Z,98851.59
2023-03-29T20:11:31.701Z,98786.22
2023-03-29T20:14:17.879Z,98856.78
2023-03-29T20:17:04.508Z,98849.88
2023-03-29T20:19:51.242Z,98849.88
2023-03-29T20:22:42.058Z,98845.56
2023-03-29T20:25:28.889Z,98820.59
2023-03-29T20:28:15.634Z,98837.81
2023-03-29T20:31:09.132Z,98830.13
2023-03-29T20:33:57.540Z,98806.94
2023-03-29T20:36:44.842Z,98803.47
2023-03-29T20:39:31.493Z,98826.75
2023-03-29T20:42:24.383Z,98828.50
2023-03-29T20:45:18.233Z,98818.16
2023-03-29T20:48:04.674Z,98810.44
2023-03-29T20:50:51.974Z,98816.53
2023-03-29T20:53:42.752Z,98811.38
2023-03-29T20:56:33.280Z,98810.53
2023-03-29T20:59:20.131Z,98795.06
2023-03-29T21:02:08.836Z,98789.91
2023-03-29T21:05:00.135Z,98805.41
2023-03-29T21:07:48.033Z,98795.97
2023-03-29T21:10:36.435Z,98792.53
2023-03-29T21:13:23.127Z,98792.53
2023-03-29T21:16:10.702Z,98791.69
2023-03-29T21:18:57.446Z,98776.19
2023-03-29T21:21:44.974Z,98783.94
2023-03-29T21:24:33.087Z,98777.06
2023-03-29T21:27:19.891Z,98774.47
2023-03-29T21:30:08.057Z,98771.03
2023-03-29T21:32:54.563Z,98758.13
2023-03-29T21:35:41.409Z,98754.69
2023-03-29T21:38:28.688Z,98740.03
2023-03-29T21:41:15.406Z,98742.59
2023-03-29T21:44:01.678Z,98745.19
2023-03-29T21:46:48.005Z,98728.81
2023-03-29T21:49:34.210Z,98735.75
2023-03-29T21:52:21.584Z,98738.34
2023-03-29T21:55:08.386Z,98730.53
2023-03-29T21:57:54.793Z,98720.19
2023-03-29T22:00:41.664Z,98739.13
2023-03-29T22:03:28.217Z,98728.78
2023-03-29T22:06:14.826Z,98732.25
2023-03-29T22:09:01.189Z,98724.41
2023-03-29T22:11:48.625Z,98728.78
2023-03-29T22:14:35.411Z,98720.19
2023-03-29T22:17:22.998Z,98727.13
2023-03-29T22:20:13.090Z,98721.97
2023-03-29T22:22:59.488Z,98727.09
2023-03-29T22:25:46.250Z,98733.16
2023-03-29T22:28:34.137Z,98725.38
2023-03-29T22:31:23.061Z,98732.31
2023-03-29T22:34:09.341Z,98729.69
2023-03-29T22:36:55.748Z,98732.31
2023-03-29T22:39:42.316Z,98728.88
2023-03-29T22:42:28.922Z,98716.84
2023-03-29T22:45:15.653Z,98715.97
2023-03-29T22:48:02.491Z,98728.03
2023-03-29T22:50:49.119Z,98722.00
2023-03-29T22:53:35.824Z,98729.75
2023-03-29T22:56:23.241Z,98721.94
2023-03-29T22:59:09.752Z,98716.75
2023-03-29T23:01:56.291Z,98708.97
2023-03-29T23:04:45.287Z,98705.59
2023-03-29T23:07:36.195Z,98713.31
2023-03-29T23:10:22.344Z,98702.09
2023-03-29T23:13:08.955Z,98710.69
2023-03-29T23:15:58.765Z,98704.69
2023-03-29T23:18:45.358Z,98706.41
2023-03-29T23:21:32.172Z,98696.91
2023-03-29T23:24:19.233Z,98707.19
2023-03-29T23:27:06.273Z,98722.69
2023-03-29T23:29:52.681Z,98700.25
2023-03-29T23:32:39.338Z,98730.38
2023-03-29T23:35:26.132Z,98707.09
2023-03-29T23:38:12.725Z,98701.03
2023-03-29T23:41:02.027Z,98718.13
2023-03-29T23:43:50.582Z,98700.03
2023-03-29T23:46:37.356Z,98679.34
2023-03-29T23:49:24.081Z,98691.34
2023-03-29T23:52:10.330Z,98693.94
2023-03-29T23:54:56.555Z,98703.41
2023-03-29T23:57:43.292Z,98697.47
